KHGR/HGR METAR and TAF weather

Enter ICAO airport designator
Station Type Date Time Source
KHGR METAR 2022/12/04 11:53 UTC NOAA

KHGR 041153Z 28007KT 10SM CLR M01/M06 A3026 RMK AO2 SLP264 70005 T10111061 10022 21011 56004


Station Type Date Time Source
KHGR Decoded METAR 2022/12/04 11:53 UTC NOAA

HAGERSTOWN REGIONAL AIRPORT, MD, United States (KHGR) 39-42N 077-44W 224M
Dec 04, 2022 - 06:53 AM EST / 2022.12.04 1153 UTC
Wind: from the W (280 degrees) at 8 MPH (7 KT):0
Visibility: 10 mile(s):0
Sky conditions: clear
Temperature: 30.0 F (-1.1 C)
Windchill: 23 F (-5 C):1
Dew Point: 21.0 F (-6.1 C)
Relative Humidity: 68%
Pressure (altimeter): 30.26 in. Hg (1024 hPa)
Pressure tendency: 0.01 inches (0.4 hPa) lower than three hours ago
ob: KHGR 041153Z 28007KT 10SM CLR M01/M06 A3026 RMK AO2 SLP264 70005 T10111061 10022 21011 56004
cycle: 12

Station Type Date Time Source
KHGR TAF UTC NOAA

Error!

Example: see airport list